WPL weather

Powell Lake Seaplane Base
British Columbia, Canada

Public forecast

Using degrees Celsius for public forecast. Weather courtesy of forecast.io.

Closest aviation weather report (METAR) to Powell Lake Seaplane Base

Closest report is Powell River Airport, 3.2 nm (5.9 km) SSE. Retrieved 2020/06/02 14:00 UTC (58 minutes ago):

CYPW 021400Z VRB02KT 20SM -RA SCT022 BKN050 OVC078 12/10 A3015 RMK SC3SC2AC3 SLP211

Closest aviation forecast (TAF) to Powell Lake Seaplane Base

Closest forecast is Comox Airport, 17.2 nm (31.8 km) SW. Retrieved 2020/06/02 12:42 UTC (2 hours ago):

TAF CYQQ 021140Z 0212/0312 19006KT P6SM SCT040 OVC080 TEMPO 0214/0218 P6SM -SHRA BKN040 OVC060 BECMG 0215/0217 16012KT FM021800 14012G22KT P6SM -RA SCT015 OVC030 TEMPO 0218/0222 4SM -RA BR BKN015 OVC025 FM022200 14015G25KT P6SM SCT020 BKN040 TEMPO 0222/0224 P6SM -SHRA BKN020 OVC040 BECMG 0302/0304 12010KT FM030400 32008KT P6SM SCT040 FM030900 29005KT P6SM SCT040 BKN180 RMK NXT FCST BY 021800Z